sensor_id;sensor_type;location;lat;lon;timestamp;P1;durP1;ratioP1;P2;durP2;ratioP2
59302;SDS011;45074;52.764;6.896;2023-04-08T00:01:37;13.10;;;7.80;;
59302;SDS011;45074;52.764;6.896;2023-04-08T00:04:03;12.35;;;8.30;;
59302;SDS011;45074;52.764;6.896;2023-04-08T00:06:29;15.45;;;8.70;;
59302;SDS011;45074;52.764;6.896;2023-04-08T00:08:55;13.80;;;8.32;;
59302;SDS011;45074;52.764;6.896;2023-04-08T00:11:21;13.15;;;8.25;;
59302;SDS011;45074;52.764;6.896;2023-04-08T00:13:47;12.73;;;8.80;;
59302;SDS011;45074;52.764;6.896;2023-04-08T00:16:13;13.40;;;8.90;;
59302;SDS011;45074;52.764;6.896;2023-04-08T00:18:40;13.07;;;8.93;;
59302;SDS011;45074;52.764;6.896;2023-04-08T00:21:06;14.88;;;9.00;;
59302;SDS011;45074;52.764;6.896;2023-04-08T00:23:32;14.65;;;8.48;;
59302;SDS011;45074;52.764;6.896;2023-04-08T00:25:58;13.30;;;9.10;;
59302;SDS011;45074;52.764;6.896;2023-04-08T00:28:24;14.75;;;8.27;;
59302;SDS011;45074;52.764;6.896;2023-04-08T00:30:51;14.73;;;8.75;;
59302;SDS011;45074;52.764;6.896;2023-04-08T00:33:17;12.60;;;8.68;;
59302;SDS011;45074;52.764;6.896;2023-04-08T00:35:43;15.93;;;9.13;;
59302;SDS011;45074;52.764;6.896;2023-04-08T00:38:10;15.23;;;8.93;;
59302;SDS011;45074;52.764;6.896;2023-04-08T00:40:36;13.82;;;9.02;;
59302;SDS011;45074;52.764;6.896;2023-04-08T00:43:02;14.45;;;9.02;;
59302;SDS011;45074;52.764;6.896;2023-04-08T00:45:28;13.38;;;8.43;;
59302;SDS011;45074;52.764;6.896;2023-04-08T00:47:55;15.88;;;9.57;;
59302;SDS011;45074;52.764;6.896;2023-04-08T00:50:21;13.25;;;8.60;;
59302;SDS011;45074;52.764;6.896;2023-04-08T00:52:47;15.88;;;10.07;;
59302;SDS011;45074;52.764;6.896;2023-04-08T00:55:13;15.88;;;9.77;;
59302;SDS011;45074;52.764;6.896;2023-04-08T00:57:39;15.15;;;9.90;;
59302;SDS011;45074;52.764;6.896;2023-04-08T01:00:06;17.38;;;10.27;;
59302;SDS011;45074;52.764;6.896;2023-04-08T01:07:59;16.55;;;9.80;;
59302;SDS011;45074;52.764;6.896;2023-04-08T01:10:30;14.43;;;9.93;;
59302;SDS011;45074;52.764;6.896;2023-04-08T01:13:01;17.13;;;10.23;;
59302;SDS011;45074;52.764;6.896;2023-04-08T01:15:29;15.40;;;10.43;;
59302;SDS011;45074;52.764;6.896;2023-04-08T01:17:57;15.25;;;10.55;;
59302;SDS011;45074;52.764;6.896;2023-04-08T01:20:24;15.13;;;10.05;;
59302;SDS011;45074;52.764;6.896;2023-04-08T01:25:35;17.20;;;11.18;;
59302;SDS011;45074;52.764;6.896;2023-04-08T01:28:06;15.63;;;10.77;;
59302;SDS011;45074;52.764;6.896;2023-04-08T01:30:36;16.30;;;11.23;;
59302;SDS011;45074;52.764;6.896;2023-04-08T01:33:03;16.02;;;10.38;;
59302;SDS011;45074;52.764;6.896;2023-04-08T01:35:30;14.90;;;10.20;;
59302;SDS011;45074;52.764;6.896;2023-04-08T01:37:56;15.45;;;10.70;;
59302;SDS011;45074;52.764;6.896;2023-04-08T01:40:23;16.23;;;11.27;;
59302;SDS011;45074;52.764;6.896;2023-04-08T01:42:49;17.80;;;11.55;;
59302;SDS011;45074;52.764;6.896;2023-04-08T01:45:18;16.38;;;11.15;;
59302;SDS011;45074;52.764;6.896;2023-04-08T01:47:45;17.13;;;11.60;;
59302;SDS011;45074;52.764;6.896;2023-04-08T01:50:12;16.90;;;11.50;;
59302;SDS011;45074;52.764;6.896;2023-04-08T01:52:39;16.65;;;11.00;;
59302;SDS011;45074;52.764;6.896;2023-04-08T01:55:07;16.27;;;11.00;;
59302;SDS011;45074;52.764;6.896;2023-04-08T01:57:34;21.80;;;11.60;;
59302;SDS011;45074;52.764;6.896;2023-04-08T02:00:04;17.23;;;10.95;;
59302;SDS011;45074;52.764;6.896;2023-04-08T02:02:35;16.88;;;11.80;;
59302;SDS011;45074;52.764;6.896;2023-04-08T02:05:01;16.90;;;11.35;;
59302;SDS011;45074;52.764;6.896;2023-04-08T02:07:27;19.23;;;11.98;;
59302;SDS011;45074;52.764;6.896;2023-04-08T02:09:53;16.45;;;11.63;;
59302;SDS011;45074;52.764;6.896;2023-04-08T02:12:20;17.52;;;10.85;;
59302;SDS011;45074;52.764;6.896;2023-04-08T02:14:46;16.75;;;11.20;;
59302;SDS011;45074;52.764;6.896;2023-04-08T02:17:13;17.38;;;11.90;;
59302;SDS011;45074;52.764;6.896;2023-04-08T02:19:51;18.70;;;12.07;;
59302;SDS011;45074;52.764;6.896;2023-04-08T02:25:04;17.27;;;11.98;;
59302;SDS011;45074;52.764;6.896;2023-04-08T02:27:34;18.07;;;12.13;;
59302;SDS011;45074;52.764;6.896;2023-04-08T02:30:04;18.73;;;12.55;;
59302;SDS011;45074;52.764;6.896;2023-04-08T02:34:58;18.63;;;12.50;;
59302;SDS011;45074;52.764;6.896;2023-04-08T02:37:29;19.58;;;12.65;;
59302;SDS011;45074;52.764;6.896;2023-04-08T02:39:56;18.50;;;12.52;;
59302;SDS011;45074;52.764;6.896;2023-04-08T02:42:21;19.10;;;12.75;;
59302;SDS011;45074;52.764;6.896;2023-04-08T02:44:47;20.73;;;13.18;;
59302;SDS011;45074;52.764;6.896;2023-04-08T02:47:13;18.42;;;11.95;;
59302;SDS011;45074;52.764;6.896;2023-04-08T02:49:40;18.90;;;13.10;;
59302;SDS011;45074;52.764;6.896;2023-04-08T02:52:06;20.55;;;13.20;;
59302;SDS011;45074;52.764;6.896;2023-04-08T02:54:32;21.60;;;13.65;;
59302;SDS011;45074;52.764;6.896;2023-04-08T02:56:58;19.38;;;12.93;;
59302;SDS011;45074;52.764;6.896;2023-04-08T02:59:24;19.02;;;13.27;;
59302;SDS011;45074;52.764;6.896;2023-04-08T03:01:50;21.95;;;13.60;;
59302;SDS011;45074;52.764;6.896;2023-04-08T03:04:16;20.33;;;14.35;;
59302;SDS011;45074;52.764;6.896;2023-04-08T03:06:42;21.30;;;14.48;;
59302;SDS011;45074;52.764;6.896;2023-04-08T03:09:08;21.92;;;14.60;;
59302;SDS011;45074;52.764;6.896;2023-04-08T03:11:34;19.55;;;14.20;;
59302;SDS011;45074;52.764;6.896;2023-04-08T03:14:00;23.23;;;14.43;;
59302;SDS011;45074;52.764;6.896;2023-04-08T03:16:26;22.25;;;14.23;;
59302;SDS011;45074;52.764;6.896;2023-04-08T03:18:52;22.48;;;14.20;;
59302;SDS011;45074;52.764;6.896;2023-04-08T03:21:18;21.48;;;14.50;;
59302;SDS011;45074;52.764;6.896;2023-04-08T03:23:45;21.98;;;14.32;;
59302;SDS011;45074;52.764;6.896;2023-04-08T03:26:11;21.73;;;14.60;;
59302;SDS011;45074;52.764;6.896;2023-04-08T03:28:36;22.92;;;15.30;;
59302;SDS011;45074;52.764;6.896;2023-04-08T03:31:03;23.98;;;15.57;;
59302;SDS011;45074;52.764;6.896;2023-04-08T03:33:29;22.25;;;15.27;;
59302;SDS011;45074;52.764;6.896;2023-04-08T03:35:54;23.17;;;14.18;;
59302;SDS011;45074;52.764;6.896;2023-04-08T03:38:20;22.83;;;15.73;;
59302;SDS011;45074;52.764;6.896;2023-04-08T03:40:46;24.73;;;15.63;;
59302;SDS011;45074;52.764;6.896;2023-04-08T03:43:13;25.10;;;16.00;;
59302;SDS011;45074;52.764;6.896;2023-04-08T03:45:38;25.13;;;16.73;;
59302;SDS011;45074;52.764;6.896;2023-04-08T03:48:06;23.80;;;16.75;;
59302;SDS011;45074;52.764;6.896;2023-04-08T03:50:32;24.27;;;16.05;;
59302;SDS011;45074;52.764;6.896;2023-04-08T03:52:57;24.00;;;15.32;;
59302;SDS011;45074;52.764;6.896;2023-04-08T03:55:23;23.05;;;15.93;;
59302;SDS011;45074;52.764;6.896;2023-04-08T03:57:49;24.20;;;15.73;;
59302;SDS011;45074;52.764;6.896;2023-04-08T04:00:16;24.50;;;15.15;;
59302;SDS011;45074;52.764;6.896;2023-04-08T04:02:42;26.45;;;17.10;;
59302;SDS011;45074;52.764;6.896;2023-04-08T04:05:08;24.02;;;16.00;;
59302;SDS011;45074;52.764;6.896;2023-04-08T04:07:33;28.73;;;17.10;;
59302;SDS011;45074;52.764;6.896;2023-04-08T04:09:59;29.27;;;17.13;;
59302;SDS011;45074;52.764;6.896;2023-04-08T04:12:25;26.67;;;18.17;;
59302;SDS011;45074;52.764;6.896;2023-04-08T04:14:51;31.35;;;18.02;;
59302;SDS011;45074;52.764;6.896;2023-04-08T04:17:17;27.00;;;16.17;;
59302;SDS011;45074;52.764;6.896;2023-04-08T04:19:43;26.92;;;16.75;;
59302;SDS011;45074;52.764;6.896;2023-04-08T04:22:09;26.73;;;17.25;;
59302;SDS011;45074;52.764;6.896;2023-04-08T04:24:35;25.50;;;16.88;;
59302;SDS011;45074;52.764;6.896;2023-04-08T04:27:01;25.98;;;17.23;;
59302;SDS011;45074;52.764;6.896;2023-04-08T04:29:29;26.23;;;18.00;;
59302;SDS011;45074;52.764;6.896;2023-04-08T04:31:56;28.02;;;18.60;;
59302;SDS011;45074;52.764;6.896;2023-04-08T04:34:22;27.15;;;17.48;;
59302;SDS011;45074;52.764;6.896;2023-04-08T04:36:48;28.95;;;18.65;;
59302;SDS011;45074;52.764;6.896;2023-04-08T04:39:14;27.40;;;18.17;;
59302;SDS011;45074;52.764;6.896;2023-04-08T04:41:40;28.92;;;18.38;;
59302;SDS011;45074;52.764;6.896;2023-04-08T04:44:08;29.08;;;17.75;;
59302;SDS011;45074;52.764;6.896;2023-04-08T04:46:34;26.95;;;17.05;;
59302;SDS011;45074;52.764;6.896;2023-04-08T04:49:00;30.63;;;17.63;;
59302;SDS011;45074;52.764;6.896;2023-04-08T04:51:25;27.63;;;16.17;;
59302;SDS011;45074;52.764;6.896;2023-04-08T04:53:51;27.50;;;17.88;;
59302;SDS011;45074;52.764;6.896;2023-04-08T04:56:17;26.83;;;16.38;;
59302;SDS011;45074;52.764;6.896;2023-04-08T04:58:45;27.45;;;16.48;;
59302;SDS011;45074;52.764;6.896;2023-04-08T05:01:11;27.92;;;16.52;;
59302;SDS011;45074;52.764;6.896;2023-04-08T05:03:37;29.67;;;16.67;;
59302;SDS011;45074;52.764;6.896;2023-04-08T05:06:03;25.95;;;16.35;;
59302;SDS011;45074;52.764;6.896;2023-04-08T05:08:29;26.25;;;17.10;;
59302;SDS011;45074;52.764;6.896;2023-04-08T05:10:55;25.95;;;16.52;;
59302;SDS011;45074;52.764;6.896;2023-04-08T05:13:23;27.63;;;16.63;;
59302;SDS011;45074;52.764;6.896;2023-04-08T05:15:49;27.13;;;16.05;;
59302;SDS011;45074;52.764;6.896;2023-04-08T05:18:15;27.08;;;16.70;;
59302;SDS011;45074;52.764;6.896;2023-04-08T05:20:42;27.20;;;17.50;;
59302;SDS011;45074;52.764;6.896;2023-04-08T05:23:08;29.48;;;18.08;;
59302;SDS011;45074;52.764;6.896;2023-04-08T05:25:34;30.67;;;18.23;;
59302;SDS011;45074;52.764;6.896;2023-04-08T05:28:00;30.85;;;18.42;;
59302;SDS011;45074;52.764;6.896;2023-04-08T05:30:26;27.92;;;17.23;;
59302;SDS011;45074;52.764;6.896;2023-04-08T05:32:52;28.70;;;17.50;;
59302;SDS011;45074;52.764;6.896;2023-04-08T05:35:18;26.48;;;17.30;;
59302;SDS011;45074;52.764;6.896;2023-04-08T05:37:44;30.17;;;19.30;;
59302;SDS011;45074;52.764;6.896;2023-04-08T05:40:10;31.42;;;18.48;;
59302;SDS011;45074;52.764;6.896;2023-04-08T05:42:35;30.52;;;18.10;;
59302;SDS011;45074;52.764;6.896;2023-04-08T05:45:02;27.52;;;17.55;;
59302;SDS011;45074;52.764;6.896;2023-04-08T05:47:28;26.92;;;16.50;;
59302;SDS011;45074;52.764;6.896;2023-04-08T05:49:54;25.38;;;16.05;;
59302;SDS011;45074;52.764;6.896;2023-04-08T05:52:20;26.15;;;15.20;;
59302;SDS011;45074;52.764;6.896;2023-04-08T05:54:46;27.95;;;16.13;;
59302;SDS011;45074;52.764;6.896;2023-04-08T05:57:12;25.63;;;16.67;;
59302;SDS011;45074;52.764;6.896;2023-04-08T05:59:38;26.50;;;16.45;;
59302;SDS011;45074;52.764;6.896;2023-04-08T06:02:04;28.02;;;15.30;;
59302;SDS011;45074;52.764;6.896;2023-04-08T06:04:30;27.63;;;16.58;;
59302;SDS011;45074;52.764;6.896;2023-04-08T06:06:56;27.73;;;16.13;;
59302;SDS011;45074;52.764;6.896;2023-04-08T06:09:24;26.08;;;16.00;;
59302;SDS011;45074;52.764;6.896;2023-04-08T06:11:50;28.08;;;17.13;;
59302;SDS011;45074;52.764;6.896;2023-04-08T06:14:16;25.25;;;16.20;;
59302;SDS011;45074;52.764;6.896;2023-04-08T06:16:42;28.40;;;16.58;;
59302;SDS011;45074;52.764;6.896;2023-04-08T06:19:08;28.55;;;16.92;;
59302;SDS011;45074;52.764;6.896;2023-04-08T06:21:33;27.27;;;16.73;;
59302;SDS011;45074;52.764;6.896;2023-04-08T06:23:59;28.52;;;17.15;;
59302;SDS011;45074;52.764;6.896;2023-04-08T06:26:25;27.92;;;16.45;;
59302;SDS011;45074;52.764;6.896;2023-04-08T06:28:52;27.63;;;16.35;;
59302;SDS011;45074;52.764;6.896;2023-04-08T06:31:18;26.55;;;15.73;;
59302;SDS011;45074;52.764;6.896;2023-04-08T06:33:44;28.55;;;17.20;;
59302;SDS011;45074;52.764;6.896;2023-04-08T06:36:10;29.58;;;18.17;;
59302;SDS011;45074;52.764;6.896;2023-04-08T06:38:37;28.40;;;17.75;;
59302;SDS011;45074;52.764;6.896;2023-04-08T06:41:04;28.95;;;17.92;;
59302;SDS011;45074;52.764;6.896;2023-04-08T06:43:31;29.38;;;16.70;;
59302;SDS011;45074;52.764;6.896;2023-04-08T06:45:57;27.98;;;17.48;;
59302;SDS011;45074;52.764;6.896;2023-04-08T06:48:24;31.17;;;18.70;;
59302;SDS011;45074;52.764;6.896;2023-04-08T06:50:54;28.52;;;18.20;;
59302;SDS011;45074;52.764;6.896;2023-04-08T06:53:23;30.38;;;18.48;;
59302;SDS011;45074;52.764;6.896;2023-04-08T06:55:50;30.02;;;17.50;;
59302;SDS011;45074;52.764;6.896;2023-04-08T06:58:16;29.83;;;18.58;;
59302;SDS011;45074;52.764;6.896;2023-04-08T07:00:42;29.67;;;16.83;;
59302;SDS011;45074;52.764;6.896;2023-04-08T07:03:08;26.98;;;16.65;;
59302;SDS011;45074;52.764;6.896;2023-04-08T07:05:35;27.50;;;16.52;;
59302;SDS011;45074;52.764;6.896;2023-04-08T07:08:02;29.13;;;16.67;;
59302;SDS011;45074;52.764;6.896;2023-04-08T07:10:28;26.45;;;16.27;;
59302;SDS011;45074;52.764;6.896;2023-04-08T07:12:55;25.90;;;16.25;;
59302;SDS011;45074;52.764;6.896;2023-04-08T07:15:21;26.15;;;15.57;;
59302;SDS011;45074;52.764;6.896;2023-04-08T07:17:47;26.20;;;15.93;;
59302;SDS011;45074;52.764;6.896;2023-04-08T07:20:13;26.92;;;16.48;;
59302;SDS011;45074;52.764;6.896;2023-04-08T07:22:39;25.83;;;16.15;;
59302;SDS011;45074;52.764;6.896;2023-04-08T07:25:05;26.10;;;16.58;;
59302;SDS011;45074;52.764;6.896;2023-04-08T07:27:34;23.05;;;15.57;;
59302;SDS011;45074;52.764;6.896;2023-04-08T07:30:00;26.85;;;16.70;;
59302;SDS011;45074;52.764;6.896;2023-04-08T07:32:27;24.45;;;16.55;;
59302;SDS011;45074;52.764;6.896;2023-04-08T07:34:53;26.35;;;15.75;;
59302;SDS011;45074;52.764;6.896;2023-04-08T07:37:19;25.65;;;15.35;;
59302;SDS011;45074;52.764;6.896;2023-04-08T07:39:45;24.35;;;15.48;;
59302;SDS011;45074;52.764;6.896;2023-04-08T07:42:11;22.50;;;14.90;;
59302;SDS011;45074;52.764;6.896;2023-04-08T07:44:37;21.98;;;14.77;;
59302;SDS011;45074;52.764;6.896;2023-04-08T07:47:03;22.15;;;14.52;;
59302;SDS011;45074;52.764;6.896;2023-04-08T07:49:29;22.08;;;15.32;;
59302;SDS011;45074;52.764;6.896;2023-04-08T07:51:55;20.52;;;13.77;;
59302;SDS011;45074;52.764;6.896;2023-04-08T07:54:21;23.35;;;15.20;;
59302;SDS011;45074;52.764;6.896;2023-04-08T07:56:47;21.85;;;14.65;;
59302;SDS011;45074;52.764;6.896;2023-04-08T07:59:13;20.55;;;13.60;;
59302;SDS011;45074;52.764;6.896;2023-04-08T08:01:39;20.13;;;14.30;;
59302;SDS011;45074;52.764;6.896;2023-04-08T08:04:05;19.85;;;13.80;;
59302;SDS011;45074;52.764;6.896;2023-04-08T08:06:31;22.38;;;14.13;;
59302;SDS011;45074;52.764;6.896;2023-04-08T08:08:57;25.05;;;16.23;;
59302;SDS011;45074;52.764;6.896;2023-04-08T08:11:23;21.08;;;14.13;;
59302;SDS011;45074;52.764;6.896;2023-04-08T08:13:51;21.67;;;14.27;;
59302;SDS011;45074;52.764;6.896;2023-04-08T08:16:17;20.70;;;14.35;;
59302;SDS011;45074;52.764;6.896;2023-04-08T08:18:43;22.80;;;14.63;;
59302;SDS011;45074;52.764;6.896;2023-04-08T08:21:09;20.73;;;14.25;;
59302;SDS011;45074;52.764;6.896;2023-04-08T08:23:35;21.85;;;15.00;;
59302;SDS011;45074;52.764;6.896;2023-04-08T08:26:02;19.30;;;14.05;;
59302;SDS011;45074;52.764;6.896;2023-04-08T08:28:30;22.70;;;13.55;;
59302;SDS011;45074;52.764;6.896;2023-04-08T08:30:56;20.17;;;13.68;;
59302;SDS011;45074;52.764;6.896;2023-04-08T08:33:23;19.50;;;13.40;;
59302;SDS011;45074;52.764;6.896;2023-04-08T08:35:49;21.38;;;14.70;;
59302;SDS011;45074;52.764;6.896;2023-04-08T08:38:15;20.52;;;13.45;;
59302;SDS011;45074;52.764;6.896;2023-04-08T08:40:42;18.08;;;12.77;;
59302;SDS011;45074;52.764;6.896;2023-04-08T08:43:08;17.80;;;12.40;;
59302;SDS011;45074;52.764;6.896;2023-04-08T08:45:41;18.83;;;13.10;;
59302;SDS011;45074;52.764;6.896;2023-04-08T08:48:06;17.67;;;12.07;;
59302;SDS011;45074;52.764;6.896;2023-04-08T08:50:33;17.83;;;12.50;;
59302;SDS011;45074;52.764;6.896;2023-04-08T08:52:59;18.42;;;13.10;;
59302;SDS011;45074;52.764;6.896;2023-04-08T08:55:28;18.10;;;12.02;;
59302;SDS011;45074;52.764;6.896;2023-04-08T08:57:55;15.65;;;11.18;;
59302;SDS011;45074;52.764;6.896;2023-04-08T09:05:52;16.33;;;11.57;;
59302;SDS011;45074;52.764;6.896;2023-04-08T09:10:54;17.67;;;11.65;;
59302;SDS011;45074;52.764;6.896;2023-04-08T09:13:21;16.75;;;11.65;;
59302;SDS011;45074;52.764;6.896;2023-04-08T09:16:04;17.17;;;12.23;;
59302;SDS011;45074;52.764;6.896;2023-04-08T09:18:31;16.55;;;11.77;;
59302;SDS011;45074;52.764;6.896;2023-04-08T09:21:01;16.23;;;11.98;;
59302;SDS011;45074;52.764;6.896;2023-04-08T09:23:42;16.10;;;11.32;;
59302;SDS011;45074;52.764;6.896;2023-04-08T09:26:16;18.23;;;12.45;;
59302;SDS011;45074;52.764;6.896;2023-04-08T09:28:55;18.02;;;13.15;;
59302;SDS011;45074;52.764;6.896;2023-04-08T09:31:32;17.63;;;12.27;;
59302;SDS011;45074;52.764;6.896;2023-04-08T09:34:14;18.92;;;13.50;;
59302;SDS011;45074;52.764;6.896;2023-04-08T09:36:43;20.10;;;13.52;;
59302;SDS011;45074;52.764;6.896;2023-04-08T09:39:09;20.15;;;12.82;;
59302;SDS011;45074;52.764;6.896;2023-04-08T09:41:36;18.10;;;13.45;;
59302;SDS011;45074;52.764;6.896;2023-04-08T09:44:04;19.13;;;13.63;;
59302;SDS011;45074;52.764;6.896;2023-04-08T09:49:10;20.30;;;14.30;;
59302;SDS011;45074;52.764;6.896;2023-04-08T09:52:20;22.83;;;15.13;;
59302;SDS011;45074;52.764;6.896;2023-04-08T09:54:40;21.40;;;15.43;;
59302;SDS011;45074;52.764;6.896;2023-04-08T09:57:15;21.00;;;15.20;;
59302;SDS011;45074;52.764;6.896;2023-04-08T09:59:52;18.75;;;13.88;;
59302;SDS011;45074;52.764;6.896;2023-04-08T10:05:40;21.23;;;15.52;;
59302;SDS011;45074;52.764;6.896;2023-04-08T10:08:07;23.33;;;16.20;;
59302;SDS011;45074;52.764;6.896;2023-04-08T10:10:34;20.77;;;15.32;;
59302;SDS011;45074;52.764;6.896;2023-04-08T10:13:03;22.20;;;15.93;;
59302;SDS011;45074;52.764;6.896;2023-04-08T10:15:30;21.50;;;15.73;;
59302;SDS011;45074;52.764;6.896;2023-04-08T10:23:03;21.38;;;15.35;;
59302;SDS011;45074;52.764;6.896;2023-04-08T10:25:33;23.00;;;15.77;;
59302;SDS011;45074;52.764;6.896;2023-04-08T10:28:45;21.63;;;15.30;;
59302;SDS011;45074;52.764;6.896;2023-04-08T10:30:53;22.02;;;14.98;;
59302;SDS011;45074;52.764;6.896;2023-04-08T10:36:00;22.02;;;15.25;;
59302;SDS011;45074;52.764;6.896;2023-04-08T10:38:35;22.65;;;15.52;;
59302;SDS011;45074;52.764;6.896;2023-04-08T10:41:02;23.45;;;15.77;;
59302;SDS011;45074;52.764;6.896;2023-04-08T10:43:34;23.13;;;16.23;;
59302;SDS011;45074;52.764;6.896;2023-04-08T10:46:00;21.63;;;14.82;;
59302;SDS011;45074;52.764;6.896;2023-04-08T10:48:26;20.65;;;14.68;;
59302;SDS011;45074;52.764;6.896;2023-04-08T10:56:12;22.25;;;16.02;;
59302;SDS011;45074;52.764;6.896;2023-04-08T10:58:52;24.75;;;15.80;;
59302;SDS011;45074;52.764;6.896;2023-04-08T11:01:20;23.90;;;15.90;;
59302;SDS011;45074;52.764;6.896;2023-04-08T11:03:47;25.80;;;15.57;;
59302;SDS011;45074;52.764;6.896;2023-04-08T11:06:13;21.02;;;12.55;;
59302;SDS011;45074;52.764;6.896;2023-04-08T11:08:39;19.20;;;13.10;;
59302;SDS011;45074;52.764;6.896;2023-04-08T11:11:06;19.45;;;12.82;;
59302;SDS011;45074;52.764;6.896;2023-04-08T11:13:38;20.10;;;14.20;;
59302;SDS011;45074;52.764;6.896;2023-04-08T11:16:07;20.33;;;13.77;;
59302;SDS011;45074;52.764;6.896;2023-04-08T11:18:33;20.20;;;13.43;;
59302;SDS011;45074;52.764;6.896;2023-04-08T11:21:01;20.00;;;13.65;;
59302;SDS011;45074;52.764;6.896;2023-04-08T11:23:27;18.20;;;13.07;;
59302;SDS011;45074;52.764;6.896;2023-04-08T11:25:53;17.48;;;12.45;;
59302;SDS011;45074;52.764;6.896;2023-04-08T11:28:20;18.30;;;12.75;;
59302;SDS011;45074;52.764;6.896;2023-04-08T11:30:46;19.00;;;13.63;;
59302;SDS011;45074;52.764;6.896;2023-04-08T11:33:13;19.92;;;13.80;;
59302;SDS011;45074;52.764;6.896;2023-04-08T11:35:40;20.63;;;13.75;;
59302;SDS011;45074;52.764;6.896;2023-04-08T11:38:06;22.83;;;14.70;;
59302;SDS011;45074;52.764;6.896;2023-04-08T11:40:32;21.33;;;14.65;;
59302;SDS011;45074;52.764;6.896;2023-04-08T11:42:58;21.85;;;14.65;;
59302;SDS011;45074;52.764;6.896;2023-04-08T11:45:25;21.55;;;14.30;;
59302;SDS011;45074;52.764;6.896;2023-04-08T11:47:52;21.98;;;14.63;;
59302;SDS011;45074;52.764;6.896;2023-04-08T11:50:21;21.13;;;14.55;;
59302;SDS011;45074;52.764;6.896;2023-04-08T11:52:51;19.90;;;14.30;;
59302;SDS011;45074;52.764;6.896;2023-04-08T11:55:23;21.23;;;14.35;;
59302;SDS011;45074;52.764;6.896;2023-04-08T12:00:16;20.10;;;13.80;;
59302;SDS011;45074;52.764;6.896;2023-04-08T12:02:43;21.48;;;14.63;;
59302;SDS011;45074;52.764;6.896;2023-04-08T12:05:09;22.35;;;14.73;;
59302;SDS011;45074;52.764;6.896;2023-04-08T12:07:35;20.92;;;14.43;;
59302;SDS011;45074;52.764;6.896;2023-04-08T12:10:02;20.27;;;13.45;;
59302;SDS011;45074;52.764;6.896;2023-04-08T12:12:28;21.73;;;13.90;;
59302;SDS011;45074;52.764;6.896;2023-04-08T12:14:54;23.52;;;15.15;;
59302;SDS011;45074;52.764;6.896;2023-04-08T12:17:20;22.88;;;15.43;;
59302;SDS011;45074;52.764;6.896;2023-04-08T12:19:46;21.90;;;15.50;;
59302;SDS011;45074;52.764;6.896;2023-04-08T12:22:12;23.92;;;16.80;;
59302;SDS011;45074;52.764;6.896;2023-04-08T12:24:38;22.23;;;15.07;;
59302;SDS011;45074;52.764;6.896;2023-04-08T12:27:04;22.42;;;15.18;;
59302;SDS011;45074;52.764;6.896;2023-04-08T12:29:30;22.77;;;16.13;;
59302;SDS011;45074;52.764;6.896;2023-04-08T12:31:57;24.42;;;16.40;;
59302;SDS011;45074;52.764;6.896;2023-04-08T12:34:23;25.45;;;17.48;;
59302;SDS011;45074;52.764;6.896;2023-04-08T12:36:49;25.42;;;17.73;;
59302;SDS011;45074;52.764;6.896;2023-04-08T12:39:15;24.75;;;17.83;;
59302;SDS011;45074;52.764;6.896;2023-04-08T12:41:41;27.38;;;18.10;;
59302;SDS011;45074;52.764;6.896;2023-04-08T12:44:07;27.55;;;18.13;;
59302;SDS011;45074;52.764;6.896;2023-04-08T12:46:33;27.38;;;17.20;;
59302;SDS011;45074;52.764;6.896;2023-04-08T12:48:59;25.90;;;17.70;;
59302;SDS011;45074;52.764;6.896;2023-04-08T12:51:25;24.90;;;17.70;;
59302;SDS011;45074;52.764;6.896;2023-04-08T12:53:51;26.00;;;18.67;;
59302;SDS011;45074;52.764;6.896;2023-04-08T12:56:17;29.63;;;19.35;;
59302;SDS011;45074;52.764;6.896;2023-04-08T12:58:43;30.20;;;20.48;;
59302;SDS011;45074;52.764;6.896;2023-04-08T13:01:09;32.38;;;21.88;;
59302;SDS011;45074;52.764;6.896;2023-04-08T13:03:36;30.35;;;21.58;;
59302;SDS011;45074;52.764;6.896;2023-04-08T13:06:02;34.53;;;22.95;;
59302;SDS011;45074;52.764;6.896;2023-04-08T13:08:28;31.88;;;21.67;;
59302;SDS011;45074;52.764;6.896;2023-04-08T13:10:54;31.45;;;20.27;;
59302;SDS011;45074;52.764;6.896;2023-04-08T13:13:20;32.20;;;20.83;;
59302;SDS011;45074;52.764;6.896;2023-04-08T13:15:46;31.63;;;21.55;;
59302;SDS011;45074;52.764;6.896;2023-04-08T13:18:13;32.10;;;20.95;;
59302;SDS011;45074;52.764;6.896;2023-04-08T13:20:39;31.25;;;20.80;;
59302;SDS011;45074;52.764;6.896;2023-04-08T13:23:05;28.67;;;19.95;;
59302;SDS011;45074;52.764;6.896;2023-04-08T13:25:31;30.15;;;21.15;;
59302;SDS011;45074;52.764;6.896;2023-04-08T13:27:57;30.38;;;20.25;;
59302;SDS011;45074;52.764;6.896;2023-04-08T13:30:23;31.40;;;20.52;;
59302;SDS011;45074;52.764;6.896;2023-04-08T13:32:49;32.95;;;20.75;;
59302;SDS011;45074;52.764;6.896;2023-04-08T13:35:15;31.25;;;20.42;;
59302;SDS011;45074;52.764;6.896;2023-04-08T13:37:41;33.58;;;21.77;;
59302;SDS011;45074;52.764;6.896;2023-04-08T13:40:07;32.67;;;22.27;;
59302;SDS011;45074;52.764;6.896;2023-04-08T13:42:33;35.97;;;21.67;;
59302;SDS011;45074;52.764;6.896;2023-04-08T13:44:59;32.92;;;22.10;;
59302;SDS011;45074;52.764;6.896;2023-04-08T13:47:26;32.25;;;21.83;;
59302;SDS011;45074;52.764;6.896;2023-04-08T13:49:52;30.77;;;21.80;;
59302;SDS011;45074;52.764;6.896;2023-04-08T13:52:18;34.85;;;22.58;;
59302;SDS011;45074;52.764;6.896;2023-04-08T13:54:44;31.83;;;22.45;;
59302;SDS011;45074;52.764;6.896;2023-04-08T13:57:10;30.05;;;21.63;;
59302;SDS011;45074;52.764;6.896;2023-04-08T13:59:37;34.45;;;23.48;;
59302;SDS011;45074;52.764;6.896;2023-04-08T14:02:03;31.73;;;22.75;;
59302;SDS011;45074;52.764;6.896;2023-04-08T14:04:29;32.47;;;23.52;;
59302;SDS011;45074;52.764;6.896;2023-04-08T14:06:55;34.13;;;23.90;;
59302;SDS011;45074;52.764;6.896;2023-04-08T14:09:22;36.20;;;24.05;;
59302;SDS011;45074;52.764;6.896;2023-04-08T14:11:48;32.17;;;22.50;;
59302;SDS011;45074;52.764;6.896;2023-04-08T14:14:14;32.13;;;22.15;;
59302;SDS011;45074;52.764;6.896;2023-04-08T14:16:40;34.58;;;23.52;;
59302;SDS011;45074;52.764;6.896;2023-04-08T14:19:07;35.00;;;23.45;;
59302;SDS011;45074;52.764;6.896;2023-04-08T14:21:33;33.33;;;23.13;;
59302;SDS011;45074;52.764;6.896;2023-04-08T14:23:59;32.38;;;23.08;;
59302;SDS011;45074;52.764;6.896;2023-04-08T14:26:25;32.80;;;23.80;;
59302;SDS011;45074;52.764;6.896;2023-04-08T14:28:51;34.75;;;24.13;;
59302;SDS011;45074;52.764;6.896;2023-04-08T14:31:17;34.80;;;23.42;;
59302;SDS011;45074;52.764;6.896;2023-04-08T14:33:43;36.05;;;23.55;;
59302;SDS011;45074;52.764;6.896;2023-04-08T14:36:09;37.97;;;26.52;;
59302;SDS011;45074;52.764;6.896;2023-04-08T14:38:36;37.17;;;25.73;;
59302;SDS011;45074;52.764;6.896;2023-04-08T14:41:03;39.00;;;26.63;;
59302;SDS011;45074;52.764;6.896;2023-04-08T14:43:29;35.88;;;25.20;;
59302;SDS011;45074;52.764;6.896;2023-04-08T14:45:55;35.83;;;24.95;;
59302;SDS011;45074;52.764;6.896;2023-04-08T14:48:21;35.42;;;25.33;;
59302;SDS011;45074;52.764;6.896;2023-04-08T14:50:50;37.72;;;25.42;;
59302;SDS011;45074;52.764;6.896;2023-04-08T14:53:16;34.85;;;25.20;;
59302;SDS011;45074;52.764;6.896;2023-04-08T14:55:42;36.30;;;25.52;;
59302;SDS011;45074;52.764;6.896;2023-04-08T14:58:08;37.30;;;27.27;;
59302;SDS011;45074;52.764;6.896;2023-04-08T15:00:34;38.72;;;27.40;;
59302;SDS011;45074;52.764;6.896;2023-04-08T15:03:01;39.58;;;27.20;;
59302;SDS011;45074;52.764;6.896;2023-04-08T15:05:27;40.97;;;28.27;;